Cannington, Canada
Current Conditions -  °F | °C
As of 3:00 AM on Wednesday 22 Oct 2014 (Local Time) from CYOO Reporting Station
Overcast Overcast  
Wind Chill: 37°   Ceiling: 5000
Heat Index: 41°   Visibility: 9mi
Dew Point: 36°   Wind: 6mph
Humidity: 81%   Direction: 10°N
Pressure: 30.17"   Gusts: NA
Location:  44.35°N, 79.03°W
Report Text: CYOO 220700Z AUTO 01005KT 9SM OVC050 05/02 A3017 RMK SLP220
Loading
Personal Weather Stations






























Interactive Weather Map
Tropical Storm Tracking
New forecast layout! Learn more

10-Day Weather Forecast

Advertisements
Track Severe Weather on mobile